Detalii statie AFILIU TRANS MIZIL [00001982]

Condiții climatice - Boli

Date Temperatura solului [C]Precipitatii [mm]HC Air temperature [C]HC Relative humidity [%]
medieminmaxsumamedieminmaxmedie
2018-10-10 19:00:00 0 11.64 9.83 13.8 60.64
2018-10-10 20:00:00 0 10.95 9.88 11.88 62.89
2018-10-10 21:00:00 0 8.38 7.39 9.42 73.03
2018-10-10 22:00:00 0 7.84 6.82 9.22 75.55
2018-10-10 23:00:00 0 7.8 6.67 11.05 81.55
2018-10-11 00:00:00 0 10.97 10.37 11.52 69.98
2018-10-11 01:00:00 0 10.68 10.05 11.17 72.86
2018-10-11 02:00:00 0 10.49 10.2 10.88 74.25
2018-10-11 03:00:00 0 10.89 10.06 11.52 73.72
2018-10-11 04:00:00 0 10.2 10.01 10.52 75.9
2018-10-11 05:00:00 0 9.77 9.57 9.99 79.17
2018-10-11 06:00:00 0 10.2 9.77 10.48 79.09
2018-10-11 07:00:00 0 11.71 10.83 12.55 75.29
2018-10-11 08:00:00 0 13.33 12.65 14.25 70.04
2018-10-11 09:00:00 0 16 14.53 17.78 60.96
2018-10-11 10:00:00 0 17.72 16.74 18.46 54.07
2018-10-11 11:00:00 0 19.44 18.78 20.06 49.15
2018-10-11 12:00:00 0 20.2 19.86 20.64 45.36
2018-10-11 13:00:00 0 20.58 20.2 20.94 42.65
2018-10-11 14:00:00 0 20.96 20.61 21.21 40.06
2018-10-11 15:00:00 0 20.95 20.78 21.1 38.02
2018-10-11 16:00:00 0 20.5 20.09 20.88 36.44
2018-10-11 17:00:00 0 19.58 18.82 20.07 40.17
2018-10-11 18:00:00 0 17.46 16.55 18.74 43.31
2018-10-11 19:00:00 0 14.64 13.61 16.51 51.41
2018-10-11 20:00:00 0 12.26 11.42 13.94 59.37
2018-10-11 21:00:00 0 10.93 10.58 11.14 67.05
2018-10-11 22:00:00 0 10.91 10.39 11.5 68.59
2018-10-11 23:00:00 0 10.99 10.27 11.56 68.73
2018-10-12 00:00:00 0 10 9.68 10.39 73.94
2018-10-12 01:00:00 0 9.58 9.21 9.84 75.53
2018-10-12 02:00:00 0 10.31 9.35 10.96 72.5
2018-10-12 03:00:00 0 8.59 8.28 9.13 80.52
2018-10-12 04:00:00 0 9.52 9.36 9.73 76.37
2018-10-12 05:00:00 0 9.97 9.34 10.27 74.55
2018-10-12 06:00:00 0 8.55 8.25 9.04 79.53
2018-10-12 07:00:00 0 7.84 7.71 7.96 81.26
2018-10-12 08:00:00 0 10.37 7.89 13.3 75.56
2018-10-12 09:00:00 0 16.39 14.07 17.79 54.66
2018-10-12 10:00:00 0 18.5 17.65 19.88 45.78
2018-10-12 11:00:00 0 20.18 19.6 20.66 39.14
2018-10-12 12:00:00 0 21.08 20.65 21.3 35.48
2018-10-12 13:00:00 0 21.51 21.35 21.84 33.96
2018-10-12 14:00:00 0 21.83 21.56 22.16 31.01
2018-10-12 15:00:00 0 21.85 21.69 22.07 30.11
2018-10-12 16:00:00 0 21.63 21.38 21.83 28.15
2018-10-12 17:00:00 0 20.78 19.95 21.35 29.19
2018-10-12 18:00:00 0 18.59 17.46 19.84 35.41